Hlavní strana
METAR-TAF:

METAR-TAF

Letiště :

Volos, Řecko

zeměpisná šířka: 39-13N, zeměpisná délka: 022-48E, výška: 25 m

Aktuální stav počasí

Zpráva byla vytvořena před 29 minutami, v 00:50 UTC
Západní vítr 6 kt
Teplota 6°C
Vlhkost vzduchu 93%
Tlak 1019 hPa
Viditelnost: 8000 m
Skoro jasno ve výšce 3000 ft

METAR: LGBL 080050Z 28006KT 8000 FEW030 06/05 Q1019

Čas: 03:19 (01:19 UTC)

Předpověď počasí

Zpráva byla vytvořena před 2 hodinami a 19 minutami, v 23:00 UTC
Předpověď platná od 08 v 00 UTC do 08 v 09 UTC
Západoseverozápadní vítr 8 kt
Viditelnost: 7000 m
Skoro jasno ve výšce 1000 ft
Polojasno ve výšce 2500 ft
Dočasný
od 08 v 00 UTC do 08 v 06 UTC
Skoro jasno ve výšce 1000 ft
Oblačno až skoro zataženo ve výšce 2500 ft

TAF: LGBL 072300Z 0800/0809 30008KT 7000 FEW010 SCT025 TEMPO 0800/0806 FEW010 BKN025

Stav a předpovědi počasí z více než 4 000 letišť (zprávy METAR a TAF).

Červené a žluté tečky na mapě představují dostupné meteorologické stanice.

Když kurzor umístíte na tečku, zobrazí se název stanice.

Pak kliknutím zobrazíte stav a předpověď počasí.

Chcete-li změnit mapu, kliknutím na zelené tlačítko se znaménkem +mapu přiblížíte, kliknutím na zelené tlačítko se znaménkem – mapu oddálíte a kliknutím na zelené šipky přejdete na sousední mapy.


METAR-TAF: